createdAt,value
2023-03-14T00:01:24.167Z,11.70
2023-03-14T00:03:26.670Z,11.70
2023-03-14T00:05:29.166Z,11.70
2023-03-14T00:07:33.482Z,11.70
2023-03-14T00:09:35.996Z,11.60
2023-03-14T00:11:38.535Z,11.70
2023-03-14T00:13:41.086Z,11.70
2023-03-14T00:15:43.694Z,11.60
2023-03-14T00:17:46.263Z,11.60
2023-03-14T00:19:50.604Z,11.60
2023-03-14T00:21:53.086Z,11.70
2023-03-14T00:23:55.571Z,11.70
2023-03-14T00:26:00.639Z,11.70
2023-03-14T00:28:03.285Z,11.80
2023-03-14T00:30:08.333Z,11.80
2023-03-14T00:32:11.034Z,11.80
2023-03-14T00:34:15.434Z,11.80
2023-03-14T00:36:18.633Z,11.70
2023-03-14T00:38:21.714Z,11.70
2023-03-14T00:40:24.323Z,11.60
2023-03-14T00:42:26.999Z,11.50
2023-03-14T00:44:29.660Z,11.50
2023-03-14T00:46:32.422Z,11.40
2023-03-14T00:48:35.409Z,11.40
2023-03-14T00:50:37.892Z,11.40
2023-03-14T00:52:40.510Z,11.50
2023-03-14T00:54:43.192Z,11.50
2023-03-14T00:56:45.807Z,11.60
2023-03-14T00:58:48.371Z,11.60
2023-03-14T01:00:50.885Z,11.60
2023-03-14T01:02:53.508Z,11.70
2023-03-14T01:04:56.074Z,11.80
2023-03-14T01:06:58.657Z,11.80
2023-03-14T01:09:01.286Z,11.70
2023-03-14T01:11:06.561Z,11.70
2023-03-14T01:13:09.500Z,11.70
2023-03-14T01:15:12.259Z,11.70
2023-03-14T01:17:14.920Z,11.80
2023-03-14T01:19:17.574Z,11.90
2023-03-14T01:21:21.391Z,11.80
2023-03-14T01:23:24.114Z,11.80
2023-03-14T01:25:27.167Z,11.90
2023-03-14T01:27:30.072Z,11.90
2023-03-14T01:29:32.966Z,11.90
2023-03-14T01:31:35.604Z,12.00
2023-03-14T01:33:38.461Z,12.00
2023-03-14T01:35:41.194Z,12.00
2023-03-14T01:37:44.750Z,11.70
2023-03-14T01:39:50.239Z,11.30
2023-03-14T01:41:54.507Z,11.10
2023-03-14T01:43:57.210Z,10.70
2023-03-14T01:46:25.210Z,10.40
2023-03-14T02:07:06.616Z,9.10
2023-03-14T02:09:11.056Z,8.70
2023-03-14T02:11:13.640Z,9.20
2023-03-14T02:13:19.596Z,9.10
2023-03-14T02:15:24.226Z,9.10
2023-03-14T02:17:28.761Z,9.10
2023-03-14T02:19:37.819Z,9.00
2023-03-14T02:21:45.898Z,9.00
2023-03-14T02:23:51.417Z,9.00
2023-03-14T02:25:56.227Z,9.00
2023-03-14T02:27:59.401Z,8.90
2023-03-14T02:30:03.734Z,8.90
2023-03-14T02:32:06.890Z,8.90
2023-03-14T02:34:09.472Z,8.90
2023-03-14T02:36:14.428Z,8.80
2023-03-14T02:38:18.913Z,8.90
2023-03-14T02:40:21.701Z,8.80
2023-03-14T02:42:26.137Z,8.90
2023-03-14T02:44:29.666Z,8.90
2023-03-14T02:46:32.528Z,8.90
2023-03-14T02:48:37.221Z,8.90
2023-03-14T02:50:40.504Z,9.00
2023-03-14T02:52:43.145Z,9.00
2023-03-14T02:54:45.766Z,9.00
2023-03-14T02:56:48.456Z,9.00
2023-03-14T02:58:51.090Z,9.10
2023-03-14T03:00:56.032Z,9.20
2023-03-14T03:02:59.352Z,9.20
2023-03-14T03:05:01.901Z,9.20
2023-03-14T03:07:04.494Z,9.20
2023-03-14T03:09:07.266Z,9.20
2023-03-14T03:11:10.116Z,9.30
2023-03-14T03:13:12.675Z,9.20
2023-03-14T03:15:16.658Z,9.20
2023-03-14T03:17:19.268Z,9.20
2023-03-14T03:19:21.924Z,9.20
2023-03-14T03:21:24.535Z,9.30
2023-03-14T03:23:27.289Z,9.20
2023-03-14T03:25:29.963Z,9.20
2023-03-14T03:27:33.363Z,9.40
2023-03-14T03:29:36.557Z,9.30
2023-03-14T03:31:39.496Z,9.30
2023-03-14T03:33:42.170Z,9.30
2023-03-14T03:35:45.744Z,9.30
2023-03-14T03:37:48.741Z,9.30
2023-03-14T03:39:51.876Z,9.50
2023-03-14T03:41:54.508Z,9.40
2023-03-14T03:43:57.493Z,9.40
2023-03-14T03:46:01.955Z,9.40
2023-03-14T03:48:05.161Z,9.50
2023-03-14T03:50:08.492Z,9.40
2023-03-14T03:52:11.145Z,9.40
2023-03-14T03:54:13.727Z,9.40
2023-03-14T03:56:16.572Z,9.30
2023-03-14T03:58:19.146Z,9.40
2023-03-14T04:00:21.932Z,9.40
2023-03-14T04:02:24.584Z,9.40
2023-03-14T04:04:27.686Z,9.40
2023-03-14T04:06:31.093Z,9.40
2023-03-14T04:08:35.812Z,9.40
2023-03-14T04:10:38.504Z,9.40
2023-03-14T04:12:42.975Z,9.40
2023-03-14T04:14:47.457Z,9.30
2023-03-14T04:16:51.924Z,9.40
2023-03-14T04:18:56.168Z,9.40
2023-03-14T04:20:59.719Z,9.50
2023-03-14T04:23:04.140Z,9.50
2023-03-14T04:25:08.407Z,9.50
2023-03-14T04:27:14.627Z,9.50
2023-03-14T04:29:18.541Z,9.50
2023-03-14T04:31:22.397Z,9.50
2023-03-14T04:33:26.219Z,9.50
2023-03-14T04:35:32.075Z,9.50
2023-03-14T04:37:36.646Z,9.50
2023-03-14T04:39:39.927Z,9.50
2023-03-14T04:41:44.946Z,9.50
2023-03-14T04:43:47.871Z,9.50
2023-03-14T04:45:50.886Z,9.50
2023-03-14T04:47:53.779Z,9.40
2023-03-14T04:49:56.893Z,9.40
2023-03-14T04:52:00.818Z,9.40
2023-03-14T04:54:05.300Z,9.30
2023-03-14T04:56:08.732Z,9.30
2023-03-14T04:58:13.127Z,9.30
2023-03-14T05:00:18.563Z,9.20
2023-03-14T05:02:23.013Z,9.20
2023-03-14T05:04:27.427Z,9.10
2023-03-14T05:06:31.820Z,9.00
2023-03-14T05:08:38.003Z,9.00
2023-03-14T05:10:42.569Z,8.90
2023-03-14T05:12:47.019Z,8.90
2023-03-14T05:15:10.815Z,8.80
2023-03-14T05:25:14.602Z,8.00
2023-03-14T05:27:19.066Z,9.00
2023-03-14T05:29:27.034Z,8.80
2023-03-14T05:31:34.049Z,9.20
2023-03-14T05:36:47.947Z,8.80
2023-03-14T06:23:58.302Z,8.30
2023-03-14T06:26:02.883Z,8.40
2023-03-14T06:28:05.919Z,8.40
2023-03-14T06:30:10.177Z,8.30
2023-03-14T06:32:13.156Z,9.40
2023-03-14T06:34:15.873Z,8.60
2023-03-14T06:36:18.566Z,8.70
2023-03-14T06:38:22.373Z,8.70
2023-03-14T06:40:26.840Z,8.80
2023-03-14T06:42:31.318Z,8.80
2023-03-14T06:44:34.528Z,8.80
2023-03-14T06:46:37.437Z,8.90
2023-03-14T06:48:40.471Z,9.00
2023-03-14T06:50:43.512Z,9.00
2023-03-14T06:52:48.406Z,9.10
2023-03-14T06:54:52.825Z,9.10
2023-03-14T06:56:56.942Z,9.20
2023-03-14T06:58:59.828Z,9.40
2023-03-14T07:01:04.599Z,9.40
2023-03-14T07:03:12.212Z,9.40
2023-03-14T07:05:14.724Z,9.40
2023-03-14T07:07:17.401Z,9.40
2023-03-14T07:09:19.982Z,9.40
2023-03-14T07:11:24.925Z,9.40
2023-03-14T07:13:28.037Z,9.40
2023-03-14T07:15:32.472Z,9.40
2023-03-14T07:17:36.918Z,9.40
2023-03-14T07:19:41.412Z,9.50
2023-03-14T07:21:44.597Z,9.50
2023-03-14T07:23:48.415Z,9.40
2023-03-14T07:25:51.571Z,9.50
2023-03-14T07:27:54.728Z,9.40
2023-03-14T07:29:57.551Z,9.40
2023-03-14T07:32:00.136Z,9.40
2023-03-14T07:34:02.782Z,9.50
2023-03-14T07:36:08.202Z,9.50
2023-03-14T07:38:10.843Z,9.60
2023-03-14T07:40:15.882Z,9.50
2023-03-14T07:42:18.843Z,9.50
2023-03-14T07:44:23.232Z,9.50
2023-03-14T07:46:25.922Z,9.60
2023-03-14T07:48:28.935Z,9.50
2023-03-14T07:50:31.409Z,9.60
2023-03-14T07:52:33.981Z,9.60
2023-03-14T07:54:36.660Z,9.60
2023-03-14T07:56:39.157Z,9.60
2023-03-14T07:58:41.681Z,9.70
2023-03-14T08:00:44.403Z,9.70
2023-03-14T08:02:46.924Z,9.70
2023-03-14T08:04:49.724Z,9.70
2023-03-14T08:06:54.585Z,9.90
2023-03-14T08:08:57.176Z,9.90
2023-03-14T08:11:03.780Z,9.90
2023-03-14T08:13:06.387Z,9.90
2023-03-14T08:15:09.765Z,9.90
2023-03-14T08:17:12.351Z,9.90
2023-03-14T08:19:14.867Z,9.90
2023-03-14T08:21:17.351Z,10.00
2023-03-14T08:23:19.877Z,10.00
2023-03-14T08:25:22.583Z,10.00
2023-03-14T08:27:25.223Z,10.00
2023-03-14T08:29:27.822Z,10.00
2023-03-14T08:31:30.483Z,10.00
2023-03-14T08:33:33.109Z,10.10
2023-03-14T08:35:35.585Z,10.10
2023-03-14T08:37:38.285Z,10.10
2023-03-14T08:39:40.778Z,10.10
2023-03-14T08:41:44.852Z,10.10
2023-03-14T08:43:47.511Z,10.10
2023-03-14T08:45:50.108Z,10.10
2023-03-14T08:47:52.651Z,9.80
2023-03-14T08:49:55.186Z,10.30
2023-03-14T08:51:57.756Z,10.30
2023-03-14T08:54:00.287Z,10.30
2023-03-14T08:56:06.340Z,10.30
2023-03-14T08:58:08.886Z,10.30
2023-03-14T09:00:14.620Z,10.40
2023-03-14T09:02:17.811Z,10.40
2023-03-14T09:04:20.496Z,10.50
2023-03-14T09:06:23.752Z,10.40
2023-03-14T09:08:38.130Z,10.40
2023-03-14T09:10:39.347Z,8.70
2023-03-14T09:12:41.884Z,10.60
2023-03-14T09:14:44.502Z,10.90
2023-03-14T09:16:47.326Z,10.30
2023-03-14T09:18:49.896Z,10.40
2023-03-14T09:20:52.674Z,10.40
2023-03-14T09:22:55.219Z,10.40
2023-03-14T09:24:57.720Z,10.40
2023-03-14T09:27:00.491Z,10.80
2023-03-14T09:29:03.001Z,10.80
2023-03-14T09:31:09.280Z,10.50
2023-03-14T09:33:11.838Z,10.60
2023-03-14T09:35:14.466Z,10.60
2023-03-14T09:37:17.561Z,10.60
2023-03-14T09:39:20.089Z,10.60
2023-03-14T09:41:24.456Z,10.50
2023-03-14T09:43:31.957Z,10.60
2023-03-14T09:53:54.982Z,10.20
2023-03-14T09:56:00.574Z,7.60
2023-03-14T09:58:05.865Z,10.00
2023-03-14T10:00:15.441Z,10.00
2023-03-14T10:02:19.658Z,8.60
2023-03-14T10:04:25.325Z,10.00
2023-03-14T10:06:29.077Z,10.00
2023-03-14T10:08:31.624Z,9.90
2023-03-14T10:10:34.325Z,9.80
2023-03-14T10:12:37.845Z,9.50
2023-03-14T10:14:46.818Z,9.30
2023-03-14T10:16:50.217Z,9.10
2023-03-14T10:18:53.871Z,9.90
2023-03-14T10:21:04.503Z,9.00
2023-03-14T10:23:08.843Z,8.90
2023-03-14T10:25:13.151Z,8.90
2023-03-14T10:27:19.905Z,9.00
2023-03-14T10:29:22.501Z,8.90
2023-03-14T10:31:26.640Z,8.90
2023-03-14T10:33:29.680Z,8.80
2023-03-14T10:35:39.087Z,8.80
2023-03-14T10:37:51.107Z,8.70
2023-03-14T10:39:54.112Z,8.60
2023-03-14T10:42:00.007Z,8.50
2023-03-14T10:44:03.686Z,8.30
2023-03-14T10:46:09.393Z,8.20
2023-03-14T10:48:20.116Z,8.10
2023-03-14T10:50:26.638Z,8.00
2023-03-14T10:52:45.685Z,7.90
2023-03-14T10:54:36.836Z,7.90
2023-03-14T10:56:39.501Z,7.80
2023-03-14T10:58:43.153Z,7.70
2023-03-14T11:00:47.375Z,7.70
2023-03-14T11:03:09.641Z,7.70
2023-03-14T11:05:22.332Z,7.80
2023-03-14T11:07:26.955Z,7.90
2023-03-14T11:09:37.168Z,7.80
2023-03-14T11:11:40.593Z,7.70
2023-03-14T11:13:55.010Z,7.70
2023-03-14T11:16:04.850Z,7.60
2023-03-14T11:18:42.077Z,7.60
2023-03-14T11:23:05.212Z,7.20
2023-03-14T11:25:12.605Z,7.10
2023-03-14T11:27:20.500Z,7.00
2023-03-14T11:29:24.787Z,7.00
2023-03-14T11:31:28.148Z,6.90
2023-03-14T11:33:32.563Z,6.70
2023-03-14T11:35:36.934Z,6.60
2023-03-14T11:37:41.884Z,6.40
2023-03-14T11:39:46.387Z,6.30
2023-03-14T11:41:50.777Z,6.20
2023-03-14T11:43:55.197Z,6.10
2023-03-14T11:46:00.205Z,6.00
2023-03-14T11:48:11.116Z,6.00
2023-03-14T11:50:16.120Z,6.00
2023-03-14T11:52:22.498Z,6.00
2023-03-14T11:54:27.813Z,6.00
2023-03-14T11:56:33.134Z,6.10
2023-03-14T11:58:37.405Z,6.10
2023-03-14T12:00:41.030Z,6.00
2023-03-14T12:02:47.444Z,6.00
2023-03-14T12:05:00.484Z,5.90
2023-03-14T12:07:05.187Z,6.10
2023-03-14T12:09:08.044Z,5.90
2023-03-14T12:11:20.971Z,5.90
2023-03-14T12:13:24.021Z,5.90
2023-03-14T12:15:26.807Z,5.90
2023-03-14T12:17:31.142Z,5.90
2023-03-14T12:19:35.381Z,5.90
2023-03-14T12:21:46.579Z,5.90
2023-03-14T12:23:51.343Z,5.90
2023-03-14T12:26:08.915Z,5.80
2023-03-14T12:28:21.355Z,5.80
2023-03-14T12:30:29.766Z,5.70
2023-03-14T12:32:32.996Z,5.70
2023-03-14T12:34:36.016Z,5.70
2023-03-14T12:36:59.857Z,5.60
2023-03-14T12:39:06.687Z,5.60
2023-03-14T12:41:12.734Z,5.60
2023-03-14T12:43:23.651Z,5.60
2023-03-14T12:45:30.279Z,5.50
2023-03-14T12:47:52.288Z,5.60
2023-03-14T12:49:57.092Z,5.60
2023-03-14T12:52:00.780Z,5.80
2023-03-14T12:54:17.232Z,5.90
2023-03-14T12:56:24.976Z,5.90
2023-03-14T12:58:30.642Z,6.00
2023-03-14T13:00:34.403Z,6.10
2023-03-14T13:02:40.308Z,6.30
2023-03-14T13:04:46.178Z,6.40
2023-03-14T13:06:53.871Z,6.50
2023-03-14T13:08:57.082Z,6.40
2023-03-14T13:10:59.693Z,6.40
2023-03-14T13:13:04.066Z,6.40
2023-03-14T13:15:15.223Z,6.30
2023-03-14T13:17:34.141Z,6.30
2023-03-14T13:19:25.694Z,6.10
2023-03-14T13:21:29.076Z,6.10
2023-03-14T13:23:32.795Z,6.10
2023-03-14T13:25:36.271Z,6.00
2023-03-14T13:27:39.286Z,5.70
2023-03-14T13:29:43.544Z,5.50
2023-03-14T13:31:46.442Z,5.30
2023-03-14T13:33:50.819Z,5.20
2023-03-14T13:35:57.811Z,5.10
2023-03-14T13:38:18.059Z,5.10
2023-03-14T13:40:19.805Z,5.10
2023-03-14T13:42:22.872Z,5.20
2023-03-14T13:44:26.342Z,5.30
2023-03-14T13:46:28.875Z,5.30
2023-03-14T13:48:32.767Z,5.40
2023-03-14T13:50:35.244Z,5.40
2023-03-14T13:52:38.800Z,5.50
2023-03-14T13:54:41.378Z,5.50
2023-03-14T13:56:44.531Z,5.50
2023-03-14T13:58:47.482Z,5.50
2023-03-14T14:00:57.082Z,5.60
2023-03-14T14:03:00.371Z,5.70
2023-03-14T14:05:02.992Z,5.70
2023-03-14T14:07:09.074Z,5.70
2023-03-14T14:09:13.057Z,5.80
2023-03-14T14:11:18.227Z,5.70
2023-03-14T14:13:22.604Z,5.90
2023-03-14T14:15:26.769Z,6.00
2023-03-14T14:17:31.173Z,6.10
2023-03-14T14:19:34.887Z,6.20
2023-03-14T14:21:37.733Z,6.30
2023-03-14T14:23:40.390Z,6.40
2023-03-14T14:25:44.482Z,6.40
2023-03-14T14:27:50.013Z,6.50
2023-03-14T14:30:00.540Z,6.50
2023-03-14T14:32:04.595Z,6.60
2023-03-14T14:34:19.726Z,6.60
2023-03-14T14:36:23.249Z,6.60
2023-03-14T14:38:26.512Z,6.60
2023-03-14T14:40:30.249Z,6.60
2023-03-14T14:42:32.872Z,6.50
2023-03-14T14:44:35.691Z,6.70
2023-03-14T14:46:38.589Z,6.50
2023-03-14T14:48:41.156Z,6.50
2023-03-14T14:50:50.945Z,6.70
2023-03-14T14:52:55.492Z,6.80
2023-03-14T14:55:01.542Z,6.90
2023-03-14T14:57:04.890Z,7.10
2023-03-14T14:59:09.501Z,7.30
2023-03-14T15:01:13.913Z,7.40
2023-03-14T15:03:16.537Z,7.70
2023-03-14T15:05:20.011Z,7.60
2023-03-14T15:07:22.608Z,7.60
2023-03-14T15:09:25.245Z,7.70
2023-03-14T15:11:27.771Z,7.60
2023-03-14T15:13:30.282Z,7.50
2023-03-14T15:15:32.800Z,7.40
2023-03-14T15:17:36.379Z,7.40
2023-03-14T15:19:39.531Z,7.40
2023-03-14T15:21:42.031Z,7.30
2023-03-14T15:23:44.606Z,7.20
2023-03-14T15:25:55.543Z,7.20
2023-03-14T15:27:52.199Z,7.10
2023-03-14T15:29:54.857Z,7.10
2023-03-14T15:31:57.449Z,7.10
2023-03-14T15:33:59.940Z,7.10
2023-03-14T15:36:02.935Z,7.20
2023-03-14T15:38:05.785Z,7.20
2023-03-14T15:40:13.699Z,7.10
2023-03-14T15:42:16.217Z,7.20
2023-03-14T15:44:18.714Z,7.10
2023-03-14T15:46:22.039Z,7.00
2023-03-14T15:48:24.609Z,6.90
2023-03-14T15:50:27.147Z,6.80
2023-03-14T15:52:29.681Z,6.80
2023-03-14T15:54:32.153Z,6.80
2023-03-14T15:56:34.675Z,6.90
2023-03-14T15:58:39.101Z,7.00
2023-03-14T16:00:42.163Z,7.10
2023-03-14T16:02:45.416Z,7.10
2023-03-14T16:04:47.960Z,7.00
2023-03-14T16:06:50.508Z,7.00
2023-03-14T16:08:52.999Z,6.90
2023-03-14T16:10:55.489Z,6.80
2023-03-14T16:12:58.526Z,6.70
2023-03-14T16:15:01.156Z,6.70
2023-03-14T16:17:03.845Z,6.50
2023-03-14T16:19:07.596Z,6.50
2023-03-14T16:21:12.113Z,6.40
2023-03-14T16:23:15.828Z,6.20
2023-03-14T16:25:18.804Z,6.20
2023-03-14T16:27:21.389Z,6.10
2023-03-14T16:29:23.847Z,6.00
2023-03-14T16:31:26.561Z,6.00
2023-03-14T16:33:29.314Z,6.00
2023-03-14T16:35:31.982Z,6.00
2023-03-14T16:37:34.676Z,5.90
2023-03-14T16:40:10.670Z,5.90
2023-03-14T16:41:58.250Z,4.90
2023-03-14T16:43:58.120Z,5.90
2023-03-14T16:46:01.087Z,5.90
2023-03-14T16:48:03.677Z,5.80
2023-03-14T16:50:06.985Z,5.80
2023-03-14T16:52:10.150Z,5.90
2023-03-14T16:54:12.784Z,5.90
2023-03-14T16:56:15.597Z,5.90
2023-03-14T16:58:18.078Z,5.90
2023-03-14T17:00:21.789Z,6.00
2023-03-14T17:02:24.381Z,6.00
2023-03-14T17:04:26.922Z,6.10
2023-03-14T17:06:29.538Z,6.10
2023-03-14T17:08:32.049Z,6.00
2023-03-14T17:10:34.936Z,6.10
2023-03-14T17:12:37.496Z,6.00
2023-03-14T17:14:39.966Z,6.00
2023-03-14T17:16:42.508Z,5.90
2023-03-14T17:18:45.064Z,5.90
2023-03-14T17:20:47.607Z,5.90
2023-03-14T17:22:50.241Z,5.90
2023-03-14T17:24:52.749Z,5.70
2023-03-14T17:26:55.261Z,5.80
2023-03-14T17:28:57.791Z,5.80
2023-03-14T17:31:04.509Z,5.70
2023-03-14T17:33:07.118Z,5.60
2023-03-14T17:35:09.617Z,5.50
2023-03-14T17:37:12.217Z,5.50
2023-03-14T17:39:14.860Z,5.60
2023-03-14T17:41:17.352Z,5.50
2023-03-14T17:43:19.841Z,5.50
2023-03-14T17:45:22.557Z,5.40
2023-03-14T17:47:25.064Z,5.40
2023-03-14T17:49:27.696Z,5.40
2023-03-14T17:51:30.249Z,5.40
2023-03-14T17:53:32.872Z,5.40
2023-03-14T17:55:35.362Z,5.30
2023-03-14T17:57:38.877Z,5.30
2023-03-14T17:59:42.148Z,5.20
2023-03-14T18:01:44.915Z,5.20
2023-03-14T18:03:47.598Z,5.10
2023-03-14T18:05:50.110Z,5.20
2023-03-14T18:07:52.619Z,5.20
2023-03-14T18:09:55.159Z,5.20
2023-03-14T18:12:07.002Z,5.20
2023-03-14T18:14:03.864Z,5.10
2023-03-14T18:16:07.566Z,5.10
2023-03-14T18:18:10.068Z,5.00
2023-03-14T18:20:14.000Z,5.00
2023-03-14T18:22:16.616Z,4.90
2023-03-14T18:24:19.251Z,4.90
2023-03-14T18:26:24.358Z,4.90
2023-03-14T18:28:28.448Z,4.90
2023-03-14T18:30:30.921Z,4.90
2023-03-14T18:32:33.907Z,4.80
2023-03-14T18:34:36.553Z,4.70
2023-03-14T18:36:39.342Z,4.80
2023-03-14T18:38:42.625Z,4.80
2023-03-14T18:40:45.120Z,4.80
2023-03-14T18:42:47.611Z,4.90
2023-03-14T18:44:50.143Z,4.80
2023-03-14T18:46:53.501Z,4.80
2023-03-14T18:48:56.359Z,4.80
2023-03-14T18:51:00.084Z,4.80
2023-03-14T18:53:02.732Z,4.70
2023-03-14T18:55:06.027Z,4.60
2023-03-14T18:57:08.625Z,4.70
2023-03-14T18:59:11.109Z,4.80
2023-03-14T19:01:16.169Z,4.80
2023-03-14T19:03:18.735Z,4.80
2023-03-14T19:05:21.224Z,4.80
2023-03-14T19:07:23.825Z,4.80
2023-03-14T19:09:26.423Z,4.80
2023-03-14T19:11:28.992Z,4.80
2023-03-14T19:13:31.865Z,4.70
2023-03-14T19:15:34.357Z,4.70
2023-03-14T19:17:36.935Z,4.80
2023-03-14T19:19:39.408Z,4.80
2023-03-14T19:21:42.988Z,4.80
2023-03-14T19:23:48.429Z,4.80
2023-03-14T19:25:55.070Z,4.80
2023-03-14T19:28:03.017Z,4.80
2023-03-14T19:30:13.153Z,4.70
2023-03-14T19:32:20.831Z,4.70
2023-03-14T19:34:30.573Z,4.70
2023-03-14T19:36:38.385Z,4.70
2023-03-14T19:38:47.780Z,4.60
2023-03-14T19:40:53.025Z,4.60
2023-03-14T19:42:56.055Z,4.60
2023-03-14T19:44:59.012Z,4.70
2023-03-14T19:47:04.341Z,4.70
2023-03-14T19:49:07.764Z,4.70
2023-03-14T19:51:11.565Z,4.60
2023-03-14T19:53:16.445Z,4.60
2023-03-14T19:55:19.018Z,4.70
2023-03-14T19:57:21.535Z,4.60
2023-03-14T19:59:24.662Z,4.60
2023-03-14T20:01:27.200Z,4.60
2023-03-14T20:03:31.474Z,4.60
2023-03-14T20:05:34.755Z,4.70
2023-03-14T20:07:37.688Z,4.60
2023-03-14T20:09:40.339Z,4.60
2023-03-14T20:11:43.520Z,4.60
2023-03-14T20:13:46.700Z,4.60
2023-03-14T20:15:49.769Z,4.60
2023-03-14T20:17:52.750Z,4.50
2023-03-14T20:19:59.897Z,4.40
2023-03-14T20:22:05.721Z,4.50
2023-03-14T20:24:13.042Z,4.20
2023-03-14T20:26:19.766Z,4.20
2023-03-14T20:28:27.533Z,4.20
2023-03-14T20:30:34.430Z,4.10
2023-03-14T20:32:40.474Z,4.10
2023-03-14T20:34:44.843Z,4.10
2023-03-14T20:36:52.643Z,3.90
2023-03-14T20:38:57.357Z,3.80
2023-03-14T20:41:04.907Z,3.90
2023-03-14T20:43:10.297Z,3.80
2023-03-14T20:45:13.438Z,3.80
2023-03-14T20:47:21.602Z,3.80
2023-03-14T20:49:27.772Z,3.70
2023-03-14T20:51:31.663Z,3.80
2023-03-14T20:53:36.273Z,3.90
2023-03-14T20:55:40.356Z,3.90
2023-03-14T20:57:43.891Z,3.90
2023-03-14T20:59:46.414Z,4.00
2023-03-14T21:01:51.212Z,4.00
2023-03-14T21:03:55.011Z,4.10
2023-03-14T21:05:59.428Z,4.10
2023-03-14T21:08:03.628Z,4.00
2023-03-14T21:10:07.465Z,3.80
2023-03-14T21:12:09.996Z,3.80
2023-03-14T21:14:12.449Z,3.80
2023-03-14T21:16:15.191Z,3.90
2023-03-14T21:18:17.711Z,3.60
2023-03-14T21:20:20.393Z,3.60
2023-03-14T21:22:22.890Z,3.50
2023-03-14T21:24:25.671Z,3.60
2023-03-14T21:26:28.251Z,3.50
2023-03-14T21:28:30.899Z,3.50
2023-03-14T21:30:34.288Z,3.50
2023-03-14T21:32:36.776Z,3.50
2023-03-14T21:34:39.336Z,3.50
2023-03-14T21:36:41.841Z,3.40
2023-03-14T21:38:44.361Z,3.40
2023-03-14T21:40:48.882Z,3.40
2023-03-14T21:42:53.696Z,3.20
2023-03-14T21:44:56.198Z,3.20
2023-03-14T21:46:58.695Z,3.20
2023-03-14T21:49:01.176Z,3.10
2023-03-14T21:51:04.893Z,3.00
2023-03-14T21:53:07.432Z,3.00
2023-03-14T21:55:10.978Z,3.60
2023-03-14T21:57:14.246Z,3.00
2023-03-14T21:59:16.882Z,3.00
2023-03-14T22:01:19.651Z,2.90
2023-03-14T22:03:22.665Z,2.90
2023-03-14T22:05:25.233Z,2.90
2023-03-14T22:07:27.749Z,2.80
2023-03-14T22:09:30.236Z,2.90
2023-03-14T22:11:32.772Z,2.80
2023-03-14T22:13:35.336Z,2.80
2023-03-14T22:15:37.828Z,2.80
2023-03-14T22:17:41.800Z,2.80
2023-03-14T22:19:44.324Z,2.70
2023-03-14T22:21:46.874Z,2.70
2023-03-14T22:23:49.432Z,2.60
2023-03-14T22:25:51.952Z,2.60
2023-03-14T22:27:54.442Z,2.50
2023-03-14T22:29:57.039Z,2.60
2023-03-14T22:31:59.557Z,2.60
2023-03-14T22:34:02.071Z,2.50
2023-03-14T22:36:04.992Z,2.60
2023-03-14T22:38:07.682Z,2.60
2023-03-14T22:40:11.936Z,2.60
2023-03-14T22:42:14.471Z,2.60
2023-03-14T22:44:16.945Z,2.50
2023-03-14T22:46:19.449Z,2.60
2023-03-14T22:48:21.933Z,2.50
2023-03-14T22:50:24.417Z,2.50
2023-03-14T22:52:30.473Z,2.50
2023-03-14T22:54:33.310Z,2.50
2023-03-14T22:56:35.784Z,2.50
2023-03-14T22:58:38.585Z,2.50
2023-03-14T23:00:41.190Z,2.50
2023-03-14T23:02:43.689Z,2.50
2023-03-14T23:04:46.653Z,2.60
2023-03-14T23:06:49.164Z,2.70
2023-03-14T23:08:51.656Z,2.80
2023-03-14T23:11:01.369Z,2.80
2023-03-14T23:13:22.696Z,2.90
2023-03-14T23:15:29.520Z,3.00
2023-03-14T23:17:33.967Z,3.10
2023-03-14T23:19:38.182Z,3.10
2023-03-14T23:21:40.714Z,3.10
2023-03-14T23:23:46.030Z,3.10
2023-03-14T23:25:53.311Z,3.20
2023-03-14T23:27:53.627Z,3.20
2023-03-14T23:29:56.326Z,3.30
2023-03-14T23:31:58.857Z,3.30
2023-03-14T23:34:01.693Z,3.30
2023-03-14T23:36:04.896Z,3.30
2023-03-14T23:38:07.411Z,3.30
2023-03-14T23:40:11.731Z,3.30
2023-03-14T23:42:14.545Z,3.40
2023-03-14T23:44:17.041Z,3.40
2023-03-14T23:46:21.256Z,3.40
2023-03-14T23:48:25.359Z,3.50
2023-03-14T23:50:27.782Z,3.50
2023-03-14T23:52:30.344Z,3.50
2023-03-14T23:54:32.850Z,3.60
2023-03-14T23:56:35.325Z,3.60
2023-03-14T23:58:37.907Z,3.60
